createdAt,value
2022-09-14T00:02:15.509Z,22.10
2022-09-14T00:07:17.823Z,22.10
2022-09-14T00:12:19.791Z,22.10
2022-09-14T00:17:21.874Z,22.10
2022-09-14T00:22:23.817Z,22.10
2022-09-14T00:27:25.808Z,22.00
2022-09-14T00:32:27.789Z,22.00
2022-09-14T00:37:29.824Z,22.00
2022-09-14T00:42:31.791Z,21.90
2022-09-14T00:52:37.408Z,22.00
2022-09-14T00:57:50.779Z,21.80
2022-09-14T01:02:53.199Z,21.80
2022-09-14T01:07:58.275Z,21.80
2022-09-14T01:13:11.349Z,21.70
2022-09-14T01:18:48.660Z,21.80
2022-09-14T01:23:57.903Z,21.70
2022-09-14T01:29:08.839Z,21.70
2022-09-14T01:34:13.868Z,21.70
2022-09-14T01:39:17.236Z,21.60
2022-09-14T01:44:27.066Z,21.60
2022-09-14T01:49:32.336Z,21.60
2022-09-14T01:54:37.003Z,21.60
2022-09-14T01:59:41.351Z,21.70
2022-09-14T02:04:48.041Z,21.80
2022-09-14T02:09:51.192Z,21.70
2022-09-14T02:14:53.986Z,21.70
2022-09-14T02:19:58.270Z,21.70
2022-09-14T02:25:00.679Z,21.70
2022-09-14T02:30:03.292Z,21.70
2022-09-14T02:35:11.365Z,21.70
2022-09-14T02:40:18.643Z,21.70
2022-09-14T02:45:20.646Z,21.70
2022-09-14T02:50:22.643Z,21.70
2022-09-14T02:55:26.151Z,21.70
2022-09-14T03:00:28.689Z,21.70
2022-09-14T03:05:30.740Z,21.70
2022-09-14T03:10:33.490Z,21.70
2022-09-14T03:15:35.950Z,21.70
2022-09-14T03:20:38.014Z,21.60
2022-09-14T03:25:41.913Z,21.60
2022-09-14T03:30:43.922Z,21.60
2022-09-14T03:35:45.921Z,21.60
2022-09-14T03:40:48.375Z,21.70
2022-09-14T03:45:50.369Z,21.70
2022-09-14T03:50:52.376Z,21.70
2022-09-14T03:55:54.306Z,21.70
2022-09-14T04:00:57.426Z,21.70
2022-09-14T04:05:59.771Z,21.70
2022-09-14T04:11:07.948Z,21.60
2022-09-14T04:16:10.358Z,21.70
2022-09-14T04:21:14.113Z,21.70
2022-09-14T04:26:20.043Z,21.70
2022-09-14T04:31:22.604Z,21.70
2022-09-14T04:36:29.372Z,21.70
2022-09-14T04:41:31.924Z,21.70
2022-09-14T04:46:35.736Z,21.70
2022-09-14T04:51:38.117Z,21.70
2022-09-14T04:56:40.810Z,21.70
2022-09-14T05:01:44.283Z,21.70
2022-09-14T05:06:46.398Z,21.70
2022-09-14T05:11:50.433Z,21.70
2022-09-14T05:16:52.401Z,21.70
2022-09-14T05:21:54.386Z,21.70
2022-09-14T05:27:00.485Z,21.70
2022-09-14T05:32:03.740Z,21.70
2022-09-14T05:37:05.757Z,21.70
2022-09-14T05:42:07.907Z,21.70
2022-09-14T05:47:09.833Z,21.70
2022-09-14T05:52:11.786Z,21.70
2022-09-14T05:57:13.743Z,21.70
2022-09-14T06:02:18.162Z,21.70
2022-09-14T06:07:20.431Z,21.70
2022-09-14T06:12:23.883Z,21.80
2022-09-14T06:17:25.911Z,21.80
2022-09-14T06:22:27.886Z,21.80
2022-09-14T06:27:29.888Z,21.90
2022-09-14T06:32:32.244Z,21.90
2022-09-14T06:37:34.174Z,21.90
2022-09-14T06:42:36.172Z,21.90
2022-09-14T06:47:38.166Z,22.00
2022-09-14T06:52:40.162Z,22.10
2022-09-14T06:57:43.120Z,22.10
2022-09-14T07:02:45.436Z,22.20
2022-09-14T07:07:50.812Z,22.20
2022-09-14T07:12:52.770Z,22.30
2022-09-14T07:17:54.813Z,22.50
2022-09-14T07:22:56.836Z,22.50
2022-09-14T07:28:00.677Z,22.60
2022-09-14T07:33:02.637Z,22.70
2022-09-14T07:38:04.623Z,22.80
2022-09-14T07:43:06.551Z,22.80
2022-09-14T07:48:08.954Z,22.90
2022-09-14T07:53:10.906Z,23.00
2022-09-14T07:58:12.848Z,23.10
2022-09-14T08:03:15.059Z,23.30
2022-09-14T08:08:16.656Z,23.40
2022-09-14T08:13:18.688Z,23.40
2022-09-14T08:18:20.223Z,23.40
2022-09-14T08:23:22.020Z,23.50
2022-09-14T08:28:23.593Z,23.60
2022-09-14T08:33:25.123Z,23.70
2022-09-14T08:38:27.063Z,23.70
2022-09-14T08:43:28.658Z,23.70
2022-09-14T08:48:32.798Z,23.80
2022-09-14T08:53:37.378Z,23.90
2022-09-14T08:58:49.432Z,24.00
2022-09-14T09:04:02.859Z,24.10
2022-09-14T09:09:04.473Z,24.20
2022-09-14T09:14:13.201Z,24.30
2022-09-14T09:19:21.367Z,24.40
2022-09-14T09:24:26.334Z,24.40
2022-09-14T09:29:28.021Z,24.50
2022-09-14T09:34:45.010Z,24.60
2022-09-14T09:39:47.938Z,24.80
2022-09-14T09:44:59.285Z,25.00
2022-09-14T09:50:18.829Z,24.80
2022-09-14T09:55:26.434Z,25.20
2022-09-14T10:00:29.850Z,25.40
2022-09-14T10:05:33.067Z,25.60
2022-09-14T10:10:35.163Z,25.80
2022-09-14T10:15:37.241Z,26.00
2022-09-14T10:20:43.425Z,26.10
2022-09-14T10:25:49.622Z,26.20
2022-09-14T10:31:06.140Z,26.40
2022-09-14T10:36:13.430Z,26.70
2022-09-14T10:46:21.742Z,27.00
2022-09-14T10:51:29.756Z,27.50
2022-09-14T10:56:50.638Z,27.90
2022-09-14T11:02:01.361Z,28.20
2022-09-14T11:07:03.839Z,28.30
2022-09-14T11:12:13.087Z,28.40
2022-09-14T11:22:20.367Z,28.70
2022-09-14T11:27:27.961Z,28.80
2022-09-14T11:32:38.679Z,28.90
2022-09-14T11:37:52.689Z,29.00
2022-09-14T11:43:01.539Z,29.10
2022-09-14T11:48:40.748Z,29.10
2022-09-14T11:53:32.640Z,29.00
2022-09-14T11:58:34.673Z,28.90
2022-09-14T12:03:52.256Z,28.70
2022-09-14T12:08:54.511Z,28.60
2022-09-14T12:14:14.584Z,28.50
2022-09-14T12:19:16.949Z,28.40
2022-09-14T12:24:21.408Z,28.30
2022-09-14T12:29:25.928Z,28.30
2022-09-14T12:34:31.758Z,28.10
2022-09-14T12:39:34.841Z,28.00
2022-09-14T12:44:38.384Z,27.90
2022-09-14T12:49:40.306Z,27.90
2022-09-14T12:54:51.317Z,27.80
2022-09-14T12:59:56.551Z,27.80
2022-09-14T13:04:59.211Z,27.70
2022-09-14T13:10:01.593Z,27.70
2022-09-14T13:15:05.724Z,27.60
2022-09-14T13:20:17.617Z,27.50
2022-09-14T13:25:33.303Z,27.50
2022-09-14T13:30:35.819Z,27.50
2022-09-14T13:35:48.702Z,27.50
2022-09-14T13:40:51.785Z,27.50
2022-09-14T13:45:53.948Z,27.50
2022-09-14T13:50:55.973Z,27.30
2022-09-14T13:55:57.954Z,27.10
2022-09-14T14:01:07.304Z,26.90
2022-09-14T14:06:19.260Z,26.80
2022-09-14T14:11:32.617Z,26.70
2022-09-14T14:16:37.441Z,26.60
2022-09-14T14:21:39.539Z,26.60
2022-09-14T14:26:47.671Z,26.60
2022-09-14T14:31:49.987Z,26.60
2022-09-14T14:36:52.204Z,26.50
2022-09-14T14:41:54.463Z,26.40
2022-09-14T14:46:56.464Z,26.30
2022-09-14T14:51:58.471Z,26.20
2022-09-14T14:57:01.927Z,26.00
2022-09-14T15:02:05.495Z,25.90
2022-09-14T15:07:07.820Z,25.80
2022-09-14T15:12:09.774Z,25.70
2022-09-14T15:17:11.720Z,25.60
2022-09-14T15:22:14.231Z,25.50
2022-09-14T15:27:16.181Z,25.50
2022-09-14T15:32:18.159Z,25.50
2022-09-14T15:37:20.213Z,25.50
2022-09-14T15:42:22.726Z,25.30
2022-09-14T15:47:24.754Z,25.30
2022-09-14T15:52:26.761Z,25.30
2022-09-14T15:57:28.747Z,25.30
2022-09-14T16:02:30.699Z,25.30
2022-09-14T16:07:32.634Z,25.30
2022-09-14T16:12:34.575Z,25.40
2022-09-14T16:17:36.610Z,25.50
2022-09-14T16:22:38.522Z,25.50
2022-09-14T16:27:40.505Z,25.50
2022-09-14T16:32:42.534Z,25.50
2022-09-14T16:37:44.463Z,25.60
2022-09-14T16:42:48.090Z,25.70
2022-09-14T16:47:50.126Z,25.90
2022-09-14T16:52:52.087Z,26.00
2022-09-14T16:57:54.056Z,26.10
2022-09-14T17:02:55.982Z,26.10
2022-09-14T17:07:57.972Z,26.00
2022-09-14T17:13:00.408Z,26.00
2022-09-14T17:18:02.438Z,25.90
2022-09-14T17:23:04.385Z,25.80
2022-09-14T17:28:06.295Z,25.80
2022-09-14T17:33:08.422Z,25.70
2022-09-14T17:38:10.420Z,25.60
2022-09-14T17:43:12.425Z,25.50
2022-09-14T17:48:14.420Z,25.40
2022-09-14T17:53:16.605Z,25.30
2022-09-14T17:58:19.880Z,25.10
2022-09-14T18:03:22.059Z,25.10
2022-09-14T18:08:24.228Z,25.00
2022-09-14T18:13:26.164Z,24.90
2022-09-14T18:18:28.191Z,24.80
2022-09-14T18:23:30.131Z,24.60
2022-09-14T18:28:32.540Z,24.60
2022-09-14T18:33:35.108Z,24.50
2022-09-14T18:38:37.078Z,24.40
2022-09-14T18:43:42.628Z,24.30
2022-09-14T18:48:45.030Z,24.10
2022-09-14T18:53:46.970Z,23.90
2022-09-14T18:58:49.053Z,23.60
2022-09-14T19:07:13.463Z,23.30
2022-09-14T19:12:15.492Z,23.20
2022-09-14T19:17:17.438Z,23.20
2022-09-14T19:22:19.476Z,23.10
2022-09-14T19:27:21.559Z,23.00
2022-09-14T19:32:23.564Z,23.00
2022-09-14T19:37:25.554Z,23.00
2022-09-14T19:42:27.570Z,22.90
2022-09-14T19:47:29.620Z,22.80
2022-09-14T19:52:31.652Z,22.70
2022-09-14T19:57:36.577Z,22.70
2022-09-14T20:02:38.750Z,22.60
2022-09-14T20:07:41.399Z,22.50
2022-09-14T20:12:43.324Z,22.50
2022-09-14T20:17:45.269Z,22.50
2022-09-14T20:22:47.635Z,22.40
2022-09-14T20:27:49.657Z,22.40
2022-09-14T20:32:51.637Z,22.30
2022-09-14T20:37:53.596Z,22.30
2022-09-14T20:42:55.512Z,22.30
2022-09-14T20:47:57.467Z,22.30
2022-09-14T20:52:59.452Z,22.30
2022-09-14T20:58:01.393Z,22.30
2022-09-14T21:03:03.361Z,22.30
2022-09-14T21:08:05.455Z,22.20
2022-09-14T21:13:07.681Z,22.20
2022-09-14T21:18:09.596Z,22.20
2022-09-14T21:23:11.623Z,22.20
2022-09-14T21:28:13.646Z,22.20
2022-09-14T21:33:16.511Z,22.20
2022-09-14T21:38:18.434Z,22.10
2022-09-14T21:43:20.393Z,22.10
2022-09-14T21:48:22.432Z,22.10
2022-09-14T21:53:25.174Z,22.10
2022-09-14T21:58:27.175Z,22.00
2022-09-14T22:03:29.441Z,22.00
2022-09-14T22:08:31.814Z,22.00
2022-09-14T22:13:34.480Z,22.00
2022-09-14T22:18:37.207Z,21.90
2022-09-14T22:23:39.437Z,22.00
2022-09-14T22:28:41.417Z,21.90
2022-09-14T22:33:43.448Z,21.90
2022-09-14T22:38:46.401Z,21.90
2022-09-14T22:43:48.679Z,21.90
2022-09-14T22:48:50.893Z,21.80
2022-09-14T22:53:53.625Z,21.90
2022-09-14T22:58:55.673Z,21.90
2022-09-14T23:03:58.869Z,21.90
2022-09-14T23:09:01.162Z,21.90
2022-09-14T23:14:03.607Z,21.90
2022-09-14T23:19:09.275Z,21.90
2022-09-14T23:24:12.145Z,22.00
2022-09-14T23:29:15.406Z,21.90
2022-09-14T23:34:17.378Z,22.00
2022-09-14T23:39:19.292Z,22.00
2022-09-14T23:44:21.160Z,22.00
2022-09-14T23:49:23.243Z,22.00
2022-09-14T23:54:25.522Z,22.00
2022-09-14T23:59:27.449Z,22.00
